Terminal Aerodrome Forecast
Issued by NWS Buffalo, NY

Home | Current Version | Previous Version | Text Only | Print | Product List | Glossary On
Versions: 1 2 3 4 5 6 7 8 9 10 11 12 13 14 15 16 17 18 19 20 21 22 23 24
000
FTUS41 KBUF 250241 AAA
TAFBUF
TAF AMD
KBUF 250241Z 2503/2524 21005KT P6SM FEW100 SCT250
     FM250900 21008KT P6SM VCTS BKN060CB
     FM251200 21009KT P6SM VCSH BKN060
     FM251500 23016G24KT P6SM BKN035
     FM251800 24018G27KT P6SM BKN250=

USA.gov is the U.S. government's official web portal to all federal, state and local government web resources and services.